Time;durP1;ratioP1;P1;durP2;ratioP2;P2;SDS_P1;SDS_P2;PMS_P1;PMS_P2;Temp;Humidity;BMP_temperature;BMP_pressure;BME280_temperature;BME280_humidity;BME280_pressure;Samples;Min_cycle;Max_cycle;Signal;HPM_P1;HPM_P2
2022/11/24 00:01:26;;;;;;;;;;;7.70;99.90;;;;;;5087209;28;20343;-80
2022/11/24 00:03:54;;;;;;;;;;;7.70;99.90;;;;;;5099988;28;20362;-80
2022/11/24 00:06:20;;;;;;;;;;;7.70;99.90;;;;;;5088588;28;19959;-81
2022/11/24 00:08:48;;;;;;;;;;;7.70;99.90;;;;;;5086260;28;19936;-80
2022/11/24 00:11:15;;;;;;;;;;;7.70;99.90;;;;;;5085008;28;19928;-81
2022/11/24 00:13:42;;;;;;;;;;;7.60;99.90;;;;;;5091500;28;20345;-81
2022/11/24 00:16:12;;;;;;;;;;;7.60;99.90;;;;;;5084838;28;19970;-79
2022/11/24 00:18:39;;;;;;;;;;;7.60;99.90;;;;;;5084539;28;19928;-80
2022/11/24 00:21:06;;;;;;;;;;;7.60;99.90;;;;;;5089793;28;19928;-80
2022/11/24 00:23:33;;;;;;;;;;;7.60;99.90;;;;;;5086687;28;19924;-81
2022/11/24 00:26:07;;;;;;;;;;;7.60;99.90;;;;;;5098662;28;19929;-80
2022/11/24 00:28:38;;;;;;;;;;;7.60;99.90;;;;;;5107616;28;19934;-81
2022/11/24 00:31:06;;;;;;;;;;;7.50;99.90;;;;;;5098711;28;19928;-81
2022/11/24 00:33:34;;;;;;;;;;;7.50;99.90;;;;;;5095069;28;19939;-82
2022/11/24 00:36:00;;;;;;;;;;;7.50;99.90;;;;;;5090970;28;20076;-80
2022/11/24 00:38:27;;;;;;;;;;;7.50;99.90;;;;;;5083037;28;19924;-80
2022/11/24 00:40:54;;;;;;;;;;;7.40;99.90;;;;;;5090188;28;20230;-80
2022/11/24 00:43:21;;;;;;;;;;;7.40;99.90;;;;;;5109169;28;19924;-79
2022/11/24 00:45:48;;;;;;;;;;;7.40;99.90;;;;;;5093585;28;20345;-82
2022/11/24 00:48:14;;;;;;;;;;;7.40;99.90;;;;;;5097616;28;20014;-81
2022/11/24 00:50:42;;;;;;;;;;;7.40;99.90;;;;;;5089277;28;19960;-82
2022/11/24 00:53:09;;;;;;;;;;;7.40;99.90;;;;;;5090780;28;19958;-80
2022/11/24 00:55:39;;;;;;;;;;;7.40;99.90;;;;;;5090571;28;20413;-80
2022/11/24 00:58:06;;;;;;;;;;;7.40;99.90;;;;;;5089243;28;20004;-81
2022/11/24 01:00:35;;;;;;;;;;;6.30;99.90;;;;;;5093043;28;19950;-78
2022/11/24 01:03:02;;;;;;;;;;;7.30;99.90;;;;;;5091913;28;19991;-80
2022/11/24 01:05:29;;;;;;;;;;;7.30;99.90;;;;;;5090006;28;19928;-80
2022/11/24 01:07:57;;;;;;;;;;;7.30;99.90;;;;;;5096388;28;20023;-78
2022/11/24 01:10:23;;;;;;;;;;;7.50;99.90;;;;;;5103272;28;19924;-80
2022/11/24 01:12:50;;;;;;;;;;;7.30;99.90;;;;;;5089739;28;20114;-79
2022/11/24 01:15:17;;;;;;;;;;;7.30;99.90;;;;;;5077890;28;19928;-79
2022/11/24 01:17:44;;;;;;;;;;;7.30;99.90;;;;;;5086761;28;19924;-79
2022/11/24 01:20:12;;;;;;;;;;;7.40;99.90;;;;;;5093771;28;19938;-79
2022/11/24 01:22:40;;;;;;;;;;;7.30;99.90;;;;;;5087565;28;20308;-80
2022/11/24 01:25:09;;;;;;;;;;;7.40;99.90;;;;;;5089553;28;20028;-80
2022/11/24 01:27:36;;;;;;;;;;;7.40;99.90;;;;;;5085244;28;19935;-79
2022/11/24 01:30:04;;;;;;;;;;;7.50;99.90;;;;;;5077929;28;19932;-80
2022/11/24 01:32:32;;;;;;;;;;;7.50;99.90;;;;;;5082917;28;19934;-80
2022/11/24 01:34:59;;;;;;;;;;;7.70;99.90;;;;;;5091723;28;19928;-80
2022/11/24 01:37:26;;;;;;;;;;;7.80;99.90;;;;;;5089716;28;19933;-79
2022/11/24 01:39:54;;;;;;;;;;;7.90;99.90;;;;;;5097654;28;19928;-79
2022/11/24 01:42:25;;;;;;;;;;;8.00;99.90;;;;;;5079197;28;20470;-79
2022/11/24 01:45:13;;;;;;;;;;;8.10;99.90;;;;;;5085055;28;20290;-80
2022/11/24 01:47:40;;;;;;;;;;;8.20;99.90;;;;;;5100954;28;19939;-81
2022/11/24 01:50:10;;;;;;;;;;;8.20;99.90;;;;;;5083543;28;19929;-78
2022/11/24 01:52:38;;;;;;;;;;;8.30;99.90;;;;;;5084900;28;19932;-79
2022/11/24 01:55:08;;;;;;;;;;;8.30;99.90;;;;;;5101666;28;19928;-79
2022/11/24 01:57:38;;;;;;;;;;;8.50;99.90;;;;;;5101275;22;21589;-74
2022/11/24 02:00:06;;;;;;;;;;;8.40;99.90;;;;;;5085902;28;20384;-74
2022/11/24 02:02:41;;;;;;;;;;;8.40;99.90;;;;;;5085099;28;19932;-74
2022/11/24 02:05:08;;;;;;;;;;;8.40;99.90;;;;;;5082243;28;20431;-74
2022/11/24 02:07:36;;;;;;;;;;;8.40;99.90;;;;;;5071563;28;20412;-74
2022/11/24 02:10:05;;;;;;;;;;;8.40;99.90;;;;;;5084972;28;20415;-74
2022/11/24 02:12:32;;;;;;;;;;;8.40;99.90;;;;;;5087573;28;20392;-76
2022/11/24 02:15:01;;;;;;;;;;;8.40;99.90;;;;;;5086619;28;19924;-74
2022/11/24 02:17:27;;;;;;;;;;;8.30;99.90;;;;;;5081460;28;19924;-75
2022/11/24 02:19:55;;;;;;;;;;;8.30;99.90;;;;;;5087768;28;20321;-75
2022/11/24 02:22:26;;;;;;;;;;;8.30;99.90;;;;;;5086648;28;19939;-74
2022/11/24 02:24:55;;;;;;;;;;;8.30;99.90;;;;;;5081859;28;19932;-74
2022/11/24 02:27:24;;;;;;;;;;;8.30;99.90;;;;;;5086038;28;19932;-74
2022/11/24 02:29:51;;;;;;;;;;;8.30;99.90;;;;;;5084362;28;20388;-74
2022/11/24 02:32:18;;;;;;;;;;;8.30;99.90;;;;;;5080786;28;19927;-75
2022/11/24 02:34:45;;;;;;;;;;;8.20;99.90;;;;;;5084407;28;19939;-74
2022/11/24 02:37:11;;;;;;;;;;;8.40;99.90;;;;;;5081849;28;19935;-75
2022/11/24 02:39:38;;;;;;;;;;;8.20;99.90;;;;;;5086618;28;19928;-74
2022/11/24 02:42:07;;;;;;;;;;;8.20;99.90;;;;;;5085738;28;19932;-74
2022/11/24 02:44:37;;;;;;;;;;;8.20;99.90;;;;;;5087057;28;19948;-75
2022/11/24 02:47:05;;;;;;;;;;;8.20;99.90;;;;;;5087539;28;19932;-75
2022/11/24 02:49:32;;;;;;;;;;;8.20;99.90;;;;;;5082995;28;19951;-75
2022/11/24 02:51:58;;;;;;;;;;;8.30;99.90;;;;;;5083222;28;20402;-75
2022/11/24 02:54:25;;;;;;;;;;;8.80;99.90;;;;;;5082996;28;19929;-75
2022/11/24 02:56:52;;;;;;;;;;;8.40;99.90;;;;;;5080624;28;19928;-75
2022/11/24 02:59:18;;;;;;;;;;;8.50;99.90;;;;;;5084530;28;19928;-75
2022/11/24 03:01:47;;;;;;;;;;;8.50;99.90;;;;;;5080381;28;20427;-75
2022/11/24 03:04:13;;;;;;;;;;;8.60;99.90;;;;;;5085212;28;19931;-75
2022/11/24 03:06:42;;;;;;;;;;;8.70;99.90;;;;;;5079908;28;19939;-75
2022/11/24 03:09:09;;;;;;;;;;;8.70;99.90;;;;;;5086268;28;19928;-75
2022/11/24 03:11:35;;;;;;;;;;;9.60;99.90;;;;;;5087171;28;20014;-75
2022/11/24 03:14:02;;;;;;;;;;;8.80;99.90;;;;;;5087175;28;19935;-75
2022/11/24 03:16:29;;;;;;;;;;;8.80;99.90;;;;;;5088580;28;19940;-75
2022/11/24 03:18:57;;;;;;;;;;;8.80;99.90;;;;;;5089082;28;19947;-75
2022/11/24 03:21:23;;;;;;;;;;;8.80;99.90;;;;;;5091721;28;19932;-75
2022/11/24 03:23:51;;;;;;;;;;;8.80;99.90;;;;;;5090021;28;19928;-75
2022/11/24 03:26:19;;;;;;;;;;;8.70;99.90;;;;;;5086332;28;19928;-75
2022/11/24 03:28:46;;;;;;;;;;;8.60;99.90;;;;;;5090446;28;19928;-75
2022/11/24 03:31:13;;;;;;;;;;;8.60;99.90;;;;;;5082688;28;19935;-75
2022/11/24 03:33:40;;;;;;;;;;;8.60;99.90;;;;;;5084881;28;19929;-74
2022/11/24 03:36:08;;;;;;;;;;;8.50;99.90;;;;;;5092515;28;19924;-75
2022/11/24 03:38:35;;;;;;;;;;;8.50;99.90;;;;;;5091850;28;19934;-75
2022/11/24 03:41:02;;;;;;;;;;;8.50;99.90;;;;;;5094645;28;19972;-74
2022/11/24 03:43:29;;;;;;;;;;;8.50;99.90;;;;;;5090205;28;19924;-75
2022/11/24 03:45:55;;;;;;;;;;;8.50;99.90;;;;;;5091064;28;20045;-75
2022/11/24 03:48:22;;;;;;;;;;;8.50;99.90;;;;;;5083000;28;20503;-75
2022/11/24 03:50:52;;;;;;;;;;;8.60;99.90;;;;;;5084034;28;19924;-75
2022/11/24 03:53:21;;;;;;;;;;;8.60;99.90;;;;;;5079091;28;19932;-75
2022/11/24 03:55:47;;;;;;;;;;;8.70;99.90;;;;;;5088609;28;20346;-74
2022/11/24 03:58:14;;;;;;;;;;;8.70;99.90;;;;;;5087849;28;20407;-75
2022/11/24 04:00:41;;;;;;;;;;;8.80;99.90;;;;;;5090011;28;19924;-75
2022/11/24 04:03:08;;;;;;;;;;;8.80;99.90;;;;;;5088668;28;20398;-74
2022/11/24 04:05:35;;;;;;;;;;;8.90;99.90;;;;;;5089772;28;19928;-75
2022/11/24 04:08:02;;;;;;;;;;;8.90;99.90;;;;;;5089112;28;19973;-74
2022/11/24 04:10:31;;;;;;;;;;;9.00;99.90;;;;;;5085592;28;20275;-75
2022/11/24 04:12:57;;;;;;;;;;;9.00;99.90;;;;;;5092179;28;19928;-75
2022/11/24 04:15:23;;;;;;;;;;;9.10;99.90;;;;;;5093182;28;19924;-75
2022/11/24 04:17:50;;;;;;;;;;;10.20;99.90;;;;;;5093443;28;19932;-75
2022/11/24 04:20:17;;;;;;;;;;;9.20;99.90;;;;;;5085167;28;19931;-75
2022/11/24 04:22:44;;;;;;;;;;;9.30;99.90;;;;;;5087877;28;19935;-75
2022/11/24 04:25:11;;;;;;;;;;;9.30;99.90;;;;;;5086990;28;20149;-75
2022/11/24 04:27:39;;;;;;;;;;;9.40;99.90;;;;;;5084895;28;20003;-75
2022/11/24 04:30:07;;;;;;;;;;;9.40;99.90;;;;;;5088974;28;20121;-76
2022/11/24 04:32:33;;;;;;;;;;;9.40;99.90;;;;;;5089001;28;19940;-76
2022/11/24 04:35:00;;;;;;;;;;;9.40;99.90;;;;;;5086404;28;19955;-75
2022/11/24 04:37:27;;;;;;;;;;;9.50;99.90;;;;;;5086925;28;19942;-75
2022/11/24 04:39:54;;;;;;;;;;;9.50;99.90;;;;;;5086397;28;20324;-75
2022/11/24 04:42:20;;;;;;;;;;;9.50;99.90;;;;;;5096565;28;19924;-75
2022/11/24 04:44:49;;;;;;;;;;;9.50;99.90;;;;;;5101887;28;19935;-76
2022/11/24 04:47:16;;;;;;;;;;;9.50;99.90;;;;;;5093665;28;19924;-75
2022/11/24 04:49:43;;;;;;;;;;;9.50;99.90;;;;;;5087716;28;19924;-75
2022/11/24 04:52:10;;;;;;;;;;;9.60;99.90;;;;;;5083271;28;19927;-75
2022/11/24 04:54:36;;;;;;;;;;;9.50;99.90;;;;;;5087227;28;19935;-75
2022/11/24 04:57:03;;;;;;;;;;;9.50;99.90;;;;;;5076751;28;20397;-75
2022/11/24 04:59:30;;;;;;;;;;;9.60;99.90;;;;;;5085219;28;19963;-76
2022/11/24 05:01:58;;;;;;;;;;;9.60;99.90;;;;;;5083701;28;20588;-76
2022/11/24 05:04:25;;;;;;;;;;;9.60;99.90;;;;;;5085657;28;19928;-75
2022/11/24 05:06:51;;;;;;;;;;;9.60;99.90;;;;;;5080680;28;20397;-76
2022/11/24 05:09:18;;;;;;;;;;;9.60;99.90;;;;;;5086206;28;19924;-75
2022/11/24 05:11:45;;;;;;;;;;;9.60;99.90;;;;;;5081978;28;20413;-76
2022/11/24 05:14:12;;;;;;;;;;;9.60;99.90;;;;;;5088475;28;19924;-76
2022/11/24 05:16:38;;;;;;;;;;;9.60;99.90;;;;;;5088516;28;19928;-75
2022/11/24 05:19:07;;;;;;;;;;;9.60;99.90;;;;;;5088421;28;19943;-76
2022/11/24 05:21:34;;;;;;;;;;;9.50;99.90;;;;;;5080543;28;19967;-74
2022/11/24 05:24:00;;;;;;;;;;;9.40;99.90;;;;;;5086660;28;20327;-75
2022/11/24 05:26:27;;;;;;;;;;;9.40;99.90;;;;;;5077875;28;19928;-74
2022/11/24 05:28:54;;;;;;;;;;;9.40;99.90;;;;;;5086445;28;19924;-74
2022/11/24 05:31:21;;;;;;;;;;;9.30;99.90;;;;;;5081533;28;20269;-74
2022/11/24 05:33:47;;;;;;;;;;;9.30;99.90;;;;;;5087338;28;20272;-74
2022/11/24 05:38:56;;;;;;;;;;;9.30;99.90;;;;;;5082455;28;20014;-75
2022/11/24 05:41:23;;;;;;;;;;;9.30;99.90;;;;;;5088340;28;19932;-76
2022/11/24 05:43:49;;;;;;;;;;;9.30;99.90;;;;;;5087032;28;19935;-76
2022/11/24 05:46:16;;;;;;;;;;;9.30;99.90;;;;;;5088168;28;19947;-76
2022/11/24 05:48:43;;;;;;;;;;;9.30;99.90;;;;;;5082810;28;20554;-76
2022/11/24 05:51:10;;;;;;;;;;;9.30;99.90;;;;;;5087891;28;19964;-76
2022/11/24 05:53:38;;;;;;;;;;;9.30;99.90;;;;;;5087995;28;19942;-76
2022/11/24 05:56:05;;;;;;;;;;;9.30;99.90;;;;;;5088062;28;19925;-74
2022/11/24 05:58:31;;;;;;;;;;;9.30;99.90;;;;;;5085831;28;19966;-74
2022/11/24 06:00:58;;;;;;;;;;;9.30;99.90;;;;;;5086061;28;20372;-74
2022/11/24 06:03:25;;;;;;;;;;;9.20;99.90;;;;;;5087223;28;20410;-74
2022/11/24 06:05:51;;;;;;;;;;;9.20;99.90;;;;;;5093220;28;19936;-75
2022/11/24 06:08:18;;;;;;;;;;;9.30;99.90;;;;;;5080052;28;19928;-74
2022/11/24 06:10:46;;;;;;;;;;;9.30;99.90;;;;;;5088941;28;19924;-75
2022/11/24 06:13:13;;;;;;;;;;;9.20;99.90;;;;;;5085315;28;19931;-74
2022/11/24 06:15:40;;;;;;;;;;;9.20;99.90;;;;;;5083248;28;19936;-75
2022/11/24 06:18:07;;;;;;;;;;;10.90;99.90;;;;;;5080896;28;19982;-75
2022/11/24 06:20:33;;;;;;;;;;;9.30;99.90;;;;;;5085131;28;19936;-74
2022/11/24 06:23:00;;;;;;;;;;;9.20;99.90;;;;;;5088035;28;20360;-74
2022/11/24 06:25:27;;;;;;;;;;;9.20;99.90;;;;;;5087879;28;19932;-73
2022/11/24 06:27:55;;;;;;;;;;;9.10;99.90;;;;;;5085861;28;19932;-74
2022/11/24 06:30:22;;;;;;;;;;;9.10;99.90;;;;;;5086268;28;19944;-74
2022/11/24 06:32:49;;;;;;;;;;;9.00;99.90;;;;;;5077372;28;20393;-75
2022/11/24 06:35:16;;;;;;;;;;;9.00;99.90;;;;;;5084274;28;19924;-75
2022/11/24 06:37:42;;;;;;;;;;;9.00;99.90;;;;;;5080014;28;19928;-75
2022/11/24 06:40:10;;;;;;;;;;;8.90;99.90;;;;;;5088064;28;19924;-75
2022/11/24 06:42:37;;;;;;;;;;;8.90;99.90;;;;;;5075091;28;19947;-75
2022/11/24 06:45:06;;;;;;;;;;;8.90;99.90;;;;;;5084396;28;19925;-75
2022/11/24 06:47:32;;;;;;;;;;;8.80;99.90;;;;;;5087221;28;19932;-76
2022/11/24 06:49:59;;;;;;;;;;;8.80;99.90;;;;;;5091162;28;19928;-74
2022/11/24 06:52:26;;;;;;;;;;;8.70;99.90;;;;;;5091954;28;20385;-75
2022/11/24 06:54:52;;;;;;;;;;;8.70;99.90;;;;;;5090078;28;19928;-74
2022/11/24 06:57:19;;;;;;;;;;;8.60;99.90;;;;;;5091731;28;19924;-74
2022/11/24 06:59:46;;;;;;;;;;;8.60;99.90;;;;;;5088518;28;19938;-74
2022/11/24 07:02:14;;;;;;;;;;;8.60;99.90;;;;;;5089958;28;19935;-74
2022/11/24 07:04:41;;;;;;;;;;;8.60;99.90;;;;;;5089310;28;19940;-75
2022/11/24 07:07:08;;;;;;;;;;;8.70;99.90;;;;;;5083467;28;19932;-74
2022/11/24 07:09:34;;;;;;;;;;;8.60;99.90;;;;;;5086678;28;19932;-74
2022/11/24 07:12:02;;;;;;;;;;;8.70;99.90;;;;;;5092113;28;19930;-74
2022/11/24 07:14:29;;;;;;;;;;;8.80;99.90;;;;;;5081037;28;19997;-74
2022/11/24 07:16:55;;;;;;;;;;;8.80;99.90;;;;;;5092261;28;19975;-74
2022/11/24 07:19:23;;;;;;;;;;;8.90;99.90;;;;;;5086612;28;19932;-74
2022/11/24 07:21:50;;;;;;;;;;;9.00;99.90;;;;;;5090143;28;20313;-74
2022/11/24 07:24:17;;;;;;;;;;;9.10;99.90;;;;;;5092272;28;19928;-75
2022/11/24 07:26:44;;;;;;;;;;;9.20;99.90;;;;;;5091143;28;20376;-74
2022/11/24 07:29:10;;;;;;;;;;;9.20;99.90;;;;;;5090496;28;20121;-76
2022/11/24 07:31:37;;;;;;;;;;;9.30;99.90;;;;;;5091305;28;19935;-75
2022/11/24 07:34:05;;;;;;;;;;;9.30;99.90;;;;;;5090670;28;19923;-75
2022/11/24 07:36:33;;;;;;;;;;;9.30;99.90;;;;;;5087283;28;20018;-75
2022/11/24 07:38:59;;;;;;;;;;;9.40;99.90;;;;;;5087672;28;19954;-75
2022/11/24 07:41:26;;;;;;;;;;;9.40;99.90;;;;;;5091466;28;19935;-75
2022/11/24 07:43:53;;;;;;;;;;;9.50;99.90;;;;;;5090574;28;19934;-76
2022/11/24 07:46:20;;;;;;;;;;;9.50;99.90;;;;;;5090852;28;19928;-75
2022/11/24 07:48:46;;;;;;;;;;;9.50;99.90;;;;;;5091961;28;20396;-75
2022/11/24 07:51:14;;;;;;;;;;;9.50;99.90;;;;;;5088193;28;19928;-75
2022/11/24 07:53:43;;;;;;;;;;;9.60;99.90;;;;;;5091230;28;19932;-75
2022/11/24 07:56:11;;;;;;;;;;;10.60;99.90;;;;;;5091033;28;20528;-75
2022/11/24 07:58:38;;;;;;;;;;;9.70;99.90;;;;;;5107400;28;20619;-75
2022/11/24 08:01:11;;;;;;;;;;;9.70;99.90;;;;;;5098388;28;19928;-75
2022/11/24 08:03:38;;;;;;;;;;;9.70;99.90;;;;;;5083648;28;19928;-75
2022/11/24 08:06:05;;;;;;;;;;;9.50;99.90;;;;;;5086257;28;19924;-75
2022/11/24 08:08:33;;;;;;;;;;;9.80;99.90;;;;;;5083158;28;19950;-75
2022/11/24 08:11:05;;;;;;;;;;;9.80;99.90;;;;;;5088903;28;19924;-75
2022/11/24 08:13:32;;;;;;;;;;;9.90;99.90;;;;;;5088818;28;20187;-75
2022/11/24 08:15:59;;;;;;;;;;;9.90;99.90;;;;;;5086473;28;20380;-75
2022/11/24 08:18:26;;;;;;;;;;;10.00;99.90;;;;;;5087326;28;19932;-75
2022/11/24 08:20:53;;;;;;;;;;;10.00;99.90;;;;;;5082456;28;20325;-75
2022/11/24 08:23:20;;;;;;;;;;;10.10;99.90;;;;;;5088926;28;19928;-75
2022/11/24 08:25:46;;;;;;;;;;;10.10;99.90;;;;;;5088533;28;19950;-75
2022/11/24 08:28:14;;;;;;;;;;;10.10;99.90;;;;;;5087508;28;19924;-75
2022/11/24 08:30:41;;;;;;;;;;;10.10;99.90;;;;;;5080573;28;19924;-75
2022/11/24 08:33:08;;;;;;;;;;;10.10;99.90;;;;;;5087298;28;19947;-75
2022/11/24 08:35:35;;;;;;;;;;;10.10;99.90;;;;;;5083209;28;19940;-75
2022/11/24 08:38:02;;;;;;;;;;;10.10;99.90;;;;;;5089163;28;20422;-75
2022/11/24 08:40:29;;;;;;;;;;;10.10;99.90;;;;;;5085295;28;19959;-75
2022/11/24 08:42:57;;;;;;;;;;;10.10;99.90;;;;;;5083956;28;19932;-75
2022/11/24 08:45:25;;;;;;;;;;;10.10;99.90;;;;;;5084182;28;19924;-75
2022/11/24 08:47:53;;;;;;;;;;;10.10;99.90;;;;;;5085424;28;19924;-75
2022/11/24 08:50:20;;;;;;;;;;;10.20;99.90;;;;;;5084716;28;19967;-75
2022/11/24 08:52:46;;;;;;;;;;;10.20;99.90;;;;;;5085677;28;20025;-76
2022/11/24 08:55:13;;;;;;;;;;;10.70;99.90;;;;;;5087337;28;19928;-75
2022/11/24 08:57:40;;;;;;;;;;;10.30;99.90;;;;;;5087854;28;19976;-75
2022/11/24 09:00:07;;;;;;;;;;;10.30;99.90;;;;;;5086797;28;19934;-75
2022/11/24 09:02:35;;;;;;;;;;;10.40;99.90;;;;;;5088641;28;20470;-75
2022/11/24 09:05:02;;;;;;;;;;;10.40;99.90;;;;;;5081842;28;19931;-75
2022/11/24 09:07:29;;;;;;;;;;;10.40;99.90;;;;;;5083686;28;19973;-75
2022/11/24 09:09:55;;;;;;;;;;;10.50;99.90;;;;;;5087949;28;19974;-75
2022/11/24 09:12:22;;;;;;;;;;;11.90;99.90;;;;;;5084107;28;19947;-75
2022/11/24 09:14:49;;;;;;;;;;;10.50;99.90;;;;;;5084747;28;20281;-75
2022/11/24 09:17:15;;;;;;;;;;;10.50;99.90;;;;;;5081848;28;19928;-75
2022/11/24 09:19:43;;;;;;;;;;;10.50;99.90;;;;;;5087901;28;19939;-75
2022/11/24 09:22:10;;;;;;;;;;;10.60;99.90;;;;;;5080666;28;20335;-75
2022/11/24 09:24:37;;;;;;;;;;;10.70;99.90;;;;;;5085013;28;19935;-75
2022/11/24 09:27:04;;;;;;;;;;;10.70;99.90;;;;;;5088010;28;19938;-76
2022/11/24 09:29:30;;;;;;;;;;;10.80;99.90;;;;;;5086071;28;19936;-75
2022/11/24 09:31:58;;;;;;;;;;;10.80;99.90;;;;;;5088819;28;19924;-75
2022/11/24 09:34:25;;;;;;;;;;;10.90;99.90;;;;;;5079126;28;20285;-75
2022/11/24 09:36:54;;;;;;;;;;;11.00;99.90;;;;;;5088756;28;19964;-75
2022/11/24 09:39:21;;;;;;;;;;;11.10;99.90;;;;;;5085066;28;19973;-74
2022/11/24 09:41:57;;;;;;;;;;;11.10;99.90;;;;;;5088413;28;19931;-75
2022/11/24 09:44:40;;;;;;;;;;;11.10;99.90;;;;;;5086273;28;19935;-75
2022/11/24 09:47:11;;;;;;;;;;;11.30;99.90;;;;;;5083439;28;20332;-76
2022/11/24 09:49:40;;;;;;;;;;;11.30;99.90;;;;;;5086010;28;19928;-76
2022/11/24 09:52:11;;;;;;;;;;;11.30;99.90;;;;;;5084463;28;19947;-76
2022/11/24 09:54:41;;;;;;;;;;;11.40;99.90;;;;;;5087015;28;19928;-76
2022/11/24 09:57:11;;;;;;;;;;;11.70;99.90;;;;;;5079385;28;19938;-74
2022/11/24 09:59:39;;;;;;;;;;;11.70;99.90;;;;;;5084911;28;19928;-75
2022/11/24 10:02:10;;;;;;;;;;;12.00;99.90;;;;;;5087847;28;19935;-75
2022/11/24 10:04:41;;;;;;;;;;;12.10;99.90;;;;;;5084036;28;20312;-76
2022/11/24 10:07:13;;;;;;;;;;;12.50;99.90;;;;;;5086779;28;20503;-74
2022/11/24 10:09:45;;;;;;;;;;;13.90;99.90;;;;;;5085106;28;19967;-75
2022/11/24 10:12:20;;;;;;;;;;;12.60;99.90;;;;;;5080508;28;20452;-75
2022/11/24 10:14:55;;;;;;;;;;;12.60;99.90;;;;;;5084213;28;19924;-76
2022/11/24 10:17:28;;;;;;;;;;;12.80;99.90;;;;;;5083475;28;20369;-76
2022/11/24 10:19:57;;;;;;;;;;;12.80;99.90;;;;;;5086073;28;19924;-75
2022/11/24 10:22:31;;;;;;;;;;;12.90;99.90;;;;;;5083810;28;19935;-75
2022/11/24 10:25:03;;;;;;;;;;;13.10;99.90;;;;;;5085417;28;19936;-74
2022/11/24 10:27:33;;;;;;;;;;;13.30;99.90;;;;;;5084564;28;19928;-75
2022/11/24 10:30:01;;;;;;;;;;;13.50;99.90;;;;;;5092152;28;19928;-75
2022/11/24 10:32:30;;;;;;;;;;;13.60;99.90;;;;;;5086668;28;20005;-76
2022/11/24 10:34:59;;;;;;;;;;;13.60;99.90;;;;;;5091828;28;19928;-76
2022/11/24 10:37:30;;;;;;;;;;;13.60;99.90;;;;;;5091159;28;20333;-75
2022/11/24 10:39:59;;;;;;;;;;;14.90;99.90;;;;;;5089511;28;19935;-75
2022/11/24 10:42:27;;;;;;;;;;;13.60;99.90;;;;;;5090723;28;19928;-75
2022/11/24 10:45:01;;;;;;;;;;;13.50;99.90;;;;;;5089257;28;20340;-75
2022/11/24 10:47:28;;;;;;;;;;;13.50;99.90;;;;;;5090495;28;20399;-75
2022/11/24 10:49:56;;;;;;;;;;;13.50;99.90;;;;;;5085444;28;19928;-76
2022/11/24 10:52:24;;;;;;;;;;;13.50;99.90;;;;;;5092810;28;19932;-75
2022/11/24 10:54:55;;;;;;;;;;;13.50;99.90;;;;;;5086056;28;19928;-76
2022/11/24 10:57:31;;;;;;;;;;;13.60;99.90;;;;;;5087913;28;19940;-76
2022/11/24 10:59:58;;;;;;;;;;;13.60;99.90;;;;;;5085929;28;19928;-76
2022/11/24 11:02:29;;;;;;;;;;;13.70;99.90;;;;;;5087982;28;19935;-75
2022/11/24 11:04:56;;;;;;;;;;;13.80;99.90;;;;;;5090102;28;19928;-75
2022/11/24 11:07:24;;;;;;;;;;;13.90;99.90;;;;;;5091506;28;20026;-75
2022/11/24 11:10:11;;;;;;;;;;;13.90;99.90;;;;;;5093380;28;19928;-75
2022/11/24 11:12:39;;;;;;;;;;;14.10;99.90;;;;;;5101460;28;19928;-75
2022/11/24 11:15:21;;;;;;;;;;;15.90;99.90;;;;;;5090403;28;19928;-75
2022/11/24 11:17:51;;;;;;;;;;;14.30;99.90;;;;;;5091364;28;19928;-75
2022/11/24 11:20:18;;;;;;;;;;;14.40;99.90;;;;;;5089356;28;20011;-75
2022/11/24 11:22:47;;;;;;;;;;;14.50;99.90;;;;;;5089470;28;19943;-75
2022/11/24 11:25:22;;;;;;;;;;;14.60;99.90;;;;;;5085259;28;19928;-75
2022/11/24 11:27:50;;;;;;;;;;;14.70;99.90;;;;;;5086041;28;19928;-75
2022/11/24 11:30:18;;;;;;;;;;;14.80;99.90;;;;;;5088770;28;19947;-75
2022/11/24 11:32:51;;;;;;;;;;;14.90;99.90;;;;;;5084513;28;19928;-75
2022/11/24 11:35:18;;;;;;;;;;;14.90;99.90;;;;;;5085163;28;20391;-75
2022/11/24 11:37:45;;;;;;;;;;;14.90;99.90;;;;;;5088778;28;20381;-75
2022/11/24 11:40:14;;;;;;;;;;;15.00;99.90;;;;;;5088168;28;19932;-75
2022/11/24 11:42:44;;;;;;;;;;;15.00;99.90;;;;;;5082585;28;20368;-75
2022/11/24 11:45:14;;;;;;;;;;;15.00;99.90;;;;;;5088198;28;19924;-75
2022/11/24 11:47:42;;;;;;;;;;;14.90;99.90;;;;;;5084406;28;19935;-75
2022/11/24 11:50:12;;;;;;;;;;;14.90;99.90;;;;;;5088381;28;19935;-75
2022/11/24 11:52:55;;;;;;;;;;;14.90;99.90;;;;;;5089374;28;20027;-75
2022/11/24 11:55:41;;;;;;;;;;;14.90;99.90;;;;;;5087621;28;19928;-75
2022/11/24 11:58:22;;;;;;;;;;;14.70;99.90;;;;;;5085962;28;19928;-75
2022/11/24 12:00:54;;;;;;;;;;;14.70;99.90;;;;;;5087625;28;19934;-75
2022/11/24 12:03:39;;;;;;;;;;;14.60;99.90;;;;;;5091413;28;19924;-75
2022/11/24 12:06:10;;;;;;;;;;;14.60;99.90;;;;;;5081031;28;19935;-75
2022/11/24 12:08:42;;;;;;;;;;;14.60;99.90;;;;;;5094597;28;19963;-75
2022/11/24 12:11:14;;;;;;;;;;;14.50;99.90;;;;;;5080246;28;19935;-75
2022/11/24 12:13:42;;;;;;;;;;;14.60;99.90;;;;;;5086044;28;19932;-75
2022/11/24 12:16:17;;;;;;;;;;;14.50;99.90;;;;;;5084781;28;19935;-76
2022/11/24 12:18:49;;;;;;;;;;;14.70;99.90;;;;;;5075184;28;19928;-76
2022/11/24 12:21:17;;;;;;;;;;;15.20;99.90;;;;;;5083660;28;19924;-76
2022/11/24 12:24:03;;;;;;;;;;;14.80;99.90;;;;;;5092310;28;19912;-76
2022/11/24 12:26:34;;;;;;;;;;;14.80;99.90;;;;;;5086898;28;20423;-76
2022/11/24 12:29:08;;;;;;;;;;;14.80;99.90;;;;;;5089147;28;19928;-75
2022/11/24 12:31:42;;;;;;;;;;;14.80;99.90;;;;;;5089102;28;20433;-76
2022/11/24 12:34:26;;;;;;;;;;;14.80;99.90;;;;;;5091044;28;19928;-75
2022/11/24 12:37:02;;;;;;;;;;;14.80;99.90;;;;;;5087739;28;19935;-75
2022/11/24 12:39:34;;;;;;;;;;;14.80;99.90;;;;;;5086343;28;20060;-75
2022/11/24 12:42:05;;;;;;;;;;;14.90;99.90;;;;;;5090116;28;20408;-75
2022/11/24 12:44:37;;;;;;;;;;;15.00;99.90;;;;;;5084807;28;19924;-76
2022/11/24 12:47:13;;;;;;;;;;;15.10;99.90;;;;;;5088673;28;19935;-76
2022/11/24 12:49:46;;;;;;;;;;;15.20;99.90;;;;;;5084618;28;19924;-76
2022/11/24 12:52:16;;;;;;;;;;;15.20;99.90;;;;;;5084529;28;20389;-76
2022/11/24 12:54:43;;;;;;;;;;;15.30;99.90;;;;;;5083322;28;19932;-75
2022/11/24 12:57:12;;;;;;;;;;;15.40;99.90;;;;;;5088173;28;19927;-76
2022/11/24 12:59:44;;;;;;;;;;;15.40;99.90;;;;;;5087560;28;19932;-76
2022/11/24 13:02:18;;;;;;;;;;;15.30;99.90;;;;;;5085176;28;19963;-75
2022/11/24 13:04:47;;;;;;;;;;;15.20;99.90;;;;;;5088287;28;20428;-75
2022/11/24 13:07:16;;;;;;;;;;;15.20;99.90;;;;;;5089905;28;19935;-76
2022/11/24 13:09:57;;;;;;;;;;;15.20;99.90;;;;;;5088512;28;19970;-75
2022/11/24 13:12:24;;;;;;;;;;;15.00;99.90;;;;;;5086286;28;19924;-75
2022/11/24 13:14:51;;;;;;;;;;;14.90;99.90;;;;;;5083772;28;20300;-76
2022/11/24 13:17:27;;;;;;;;;;;14.90;99.90;;;;;;5084554;28;20262;-76
2022/11/24 13:20:13;;;;;;;;;;;14.90;99.90;;;;;;5083526;28;19932;-76
2022/11/24 13:22:39;;;;;;;;;;;14.80;99.90;;;;;;5083458;28;19928;-75
2022/11/24 13:25:14;;;;;;;;;;;14.70;99.90;;;;;;5087330;28;19928;-76
2022/11/24 13:27:42;;;;;;;;;;;14.50;99.90;;;;;;5085313;28;19928;-75
2022/11/24 13:30:24;;;;;;;;;;;14.50;99.90;;;;;;5088507;28;19943;-75
2022/11/24 13:33:01;;;;;;;;;;;14.40;99.90;;;;;;5076165;28;20444;-75
2022/11/24 13:35:28;;;;;;;;;;;14.40;99.90;;;;;;5093975;28;20330;-75
2022/11/24 13:37:55;;;;;;;;;;;14.30;99.90;;;;;;5083349;28;19943;-75
2022/11/24 13:40:42;;;;;;;;;;;14.30;99.90;;;;;;5092399;28;19931;-75
2022/11/24 13:43:24;;;;;;;;;;;14.40;99.90;;;;;;5082740;28;19924;-75
2022/11/24 13:45:52;;;;;;;;;;;14.40;99.90;;;;;;5088905;28;19939;-75
2022/11/24 13:48:38;;;;;;;;;;;14.40;99.90;;;;;;5087342;28;19928;-75
2022/11/24 13:51:16;;;;;;;;;;;14.30;99.90;;;;;;5088915;28;19931;-75
2022/11/24 13:53:45;;;;;;;;;;;14.20;99.90;;;;;;5086048;28;19997;-75
2022/11/24 13:56:21;;;;;;;;;;;14.20;99.90;;;;;;5088526;28;19928;-75
2022/11/24 13:58:49;;;;;;;;;;;14.20;99.90;;;;;;5081092;28;19928;-75
2022/11/24 14:01:19;;;;;;;;;;;14.20;99.90;;;;;;5087363;28;19934;-75
2022/11/24 14:04:10;;;;;;;;;;;14.30;99.90;;;;;;5088898;28;19928;-75
2022/11/24 14:06:40;;;;;;;;;;;14.30;99.90;;;;;;5086402;28;19928;-75
2022/11/24 14:09:16;;;;;;;;;;;14.20;99.90;;;;;;5086857;28;19928;-75
2022/11/24 14:11:43;;;;;;;;;;;14.10;99.90;;;;;;5087320;28;19924;-75
2022/11/24 14:14:18;;;;;;;;;;;13.90;99.90;;;;;;5087171;28;20304;-75
2022/11/24 14:16:44;;;;;;;;;;;13.70;99.90;;;;;;5083505;28;19928;-75
2022/11/24 14:19:11;;;;;;;;;;;13.60;99.90;;;;;;5084170;28;19927;-75
2022/11/24 14:21:40;;;;;;;;;;;13.40;99.90;;;;;;5087274;28;19935;-75
2022/11/24 14:24:10;;;;;;;;;;;13.30;99.90;;;;;;5086176;28;19928;-75
2022/11/24 14:26:38;;;;;;;;;;;13.20;99.90;;;;;;5086123;28;20436;-75
2022/11/24 14:29:06;;;;;;;;;;;13.10;99.90;;;;;;5086674;28;19932;-75
2022/11/24 14:31:32;;;;;;;;;;;13.00;99.90;;;;;;5093243;28;20359;-73
2022/11/24 14:34:16;;;;;;;;;;;12.90;99.90;;;;;;5095853;28;19924;-75
2022/11/24 14:36:44;;;;;;;;;;;12.80;99.90;;;;;;5100358;28;19942;-75